createdAt,value
2018-07-10T00:00:10.694Z,101016.39
2018-07-10T00:02:50.517Z,101023.28
2018-07-10T00:05:32.787Z,101015.13
2018-07-10T00:10:42.186Z,101020.75
2018-07-10T00:13:11.637Z,101028.60
2018-07-10T00:15:41.464Z,101034.44
2018-07-10T00:18:10.954Z,101038.80
2018-07-10T00:20:40.666Z,101037.44
2018-07-10T00:23:09.862Z,101039.56
2018-07-10T00:25:38.794Z,101043.31
2018-07-10T00:28:07.736Z,101043.31
2018-07-10T00:30:36.746Z,101045.77
2018-07-10T00:33:05.786Z,101049.29
2018-07-10T00:35:35.095Z,101055.77
2018-07-10T00:38:14.660Z,101059.20
2018-07-10T00:40:43.529Z,101056.73
2018-07-10T00:43:13.119Z,101058.30
2018-07-10T00:45:42.046Z,101059.55
2018-07-10T00:48:11.602Z,101055.42
2018-07-10T00:50:40.471Z,101056.93
2018-07-10T00:53:10.175Z,101060.59
2018-07-10T00:55:39.909Z,101062.89
2018-07-10T00:58:09.358Z,101059.58
2018-07-10T01:00:39.090Z,101064.16
2018-07-10T01:03:08.145Z,101062.80
2018-07-10T01:05:36.976Z,101073.30
2018-07-10T01:08:06.607Z,101065.41
2018-07-10T01:10:35.511Z,101071.88
2018-07-10T01:13:04.770Z,101068.58
2018-07-10T01:15:33.547Z,101070.75
2018-07-10T01:18:03.060Z,101067.75
2018-07-10T01:20:31.905Z,101064.22
2018-07-10T01:23:00.817Z,101069.22
2018-07-10T01:25:29.709Z,101061.77
2018-07-10T01:27:58.607Z,101063.28
2018-07-10T01:30:27.625Z,101064.84
2018-07-10T01:32:56.594Z,101066.41
2018-07-10T01:35:26.022Z,101058.53
2018-07-10T01:37:54.926Z,101061.75
2018-07-10T01:40:23.759Z,101061.88
2018-07-10T01:42:52.629Z,101067.42
2018-07-10T01:45:21.536Z,101071.56
2018-07-10T01:47:50.831Z,101073.12
2018-07-10T01:50:19.683Z,101070.95
2018-07-10T01:52:49.711Z,101069.50
2018-07-10T01:55:18.538Z,101063.13
2018-07-10T01:57:51.874Z,101063.86
2018-07-10T02:00:31.558Z,101071.95
2018-07-10T02:03:00.385Z,101079.42
2018-07-10T02:05:29.668Z,101071.43
2018-07-10T02:07:59.274Z,101073.09
2018-07-10T02:10:28.091Z,101073.02
2018-07-10T02:12:57.784Z,101069.78
2018-07-10T02:15:27.295Z,101073.06
2018-07-10T02:17:58.757Z,101074.08
2018-07-10T02:20:29.882Z,101082.31
2018-07-10T02:23:02.738Z,101080.02
2018-07-10T02:25:31.637Z,101080.63
2018-07-10T02:28:00.660Z,101080.02
2018-07-10T02:30:29.559Z,101085.29
2018-07-10T02:32:58.506Z,101087.25
2018-07-10T02:35:27.395Z,101088.30
2018-07-10T02:37:56.337Z,101085.59
2018-07-10T02:40:25.539Z,101086.42
2018-07-10T02:42:55.085Z,101086.11
2018-07-10T02:45:23.900Z,101090.78
2018-07-10T02:47:53.536Z,101091.66
2018-07-10T02:50:22.435Z,101097.55
2018-07-10T02:52:52.132Z,101101.47
2018-07-10T02:55:21.526Z,101098.91
2018-07-10T02:57:50.985Z,101101.36
2018-07-10T03:00:19.852Z,101102.16
2018-07-10T03:02:49.410Z,101116.98
2018-07-10T03:05:18.302Z,101110.77
2018-07-10T03:07:47.875Z,101120.86
2018-07-10T03:10:16.726Z,101117.02
2018-07-10T03:12:45.879Z,101115.20
2018-07-10T03:15:15.430Z,101117.44
2018-07-10T03:17:44.989Z,101114.11
2018-07-10T03:20:14.938Z,101115.39
2018-07-10T03:22:43.899Z,101114.33
2018-07-10T03:25:12.696Z,101119.66
2018-07-10T03:27:42.256Z,101114.64
2018-07-10T03:30:11.164Z,101121.28
2018-07-10T03:32:40.413Z,101121.41
2018-07-10T03:35:09.629Z,101126.10
2018-07-10T03:37:38.906Z,101122.38
2018-07-10T03:40:08.130Z,101117.20
2018-07-10T03:42:38.202Z,101123.59
2018-07-10T03:45:09.166Z,101127.34
2018-07-10T03:47:45.989Z,101127.28
2018-07-10T03:50:14.882Z,101132.80
2018-07-10T03:52:45.235Z,101131.98
2018-07-10T03:55:15.350Z,101133.22
2018-07-10T03:57:46.365Z,101131.50
2018-07-10T04:00:16.427Z,101129.25
2018-07-10T04:02:47.766Z,101126.52
2018-07-10T04:05:17.086Z,101129.92
2018-07-10T04:07:47.179Z,101122.85
2018-07-10T04:10:18.645Z,101125.92
2018-07-10T04:12:48.494Z,101127.98
2018-07-10T04:15:17.654Z,101132.94
2018-07-10T04:18:21.286Z,101126.08
2018-07-10T04:20:58.074Z,101135.13
2018-07-10T04:23:31.994Z,101133.84
2018-07-10T04:26:02.418Z,101133.16
2018-07-10T04:28:34.830Z,101134.38
2018-07-10T04:31:14.922Z,101139.98
2018-07-10T04:33:46.844Z,101137.84
2018-07-10T04:36:17.125Z,101133.02
2018-07-10T04:38:48.381Z,101137.60
2018-07-10T04:41:22.540Z,101137.70
2018-07-10T04:43:55.476Z,101141.00
2018-07-10T04:46:28.617Z,101143.02
2018-07-10T04:49:08.315Z,101141.28
2018-07-10T04:51:44.467Z,101152.55
2018-07-10T04:54:29.752Z,101151.42
2018-07-10T04:57:08.870Z,101153.23
2018-07-10T04:59:38.017Z,101155.15
2018-07-10T05:02:07.676Z,101159.53
2018-07-10T05:04:36.855Z,101159.02
2018-07-10T05:07:08.782Z,101164.50
2018-07-10T05:09:39.717Z,101161.33
2018-07-10T05:12:09.286Z,101156.41
2018-07-10T05:14:41.926Z,101159.75
2018-07-10T05:17:11.601Z,101171.35
2018-07-10T05:19:41.161Z,101169.05
2018-07-10T05:22:11.385Z,101164.84
2018-07-10T05:24:41.179Z,101153.58
2018-07-10T05:27:10.928Z,101158.31
2018-07-10T05:29:40.894Z,101157.53
2018-07-10T05:32:10.999Z,101162.36
2018-07-10T05:34:40.647Z,101159.35
2018-07-10T05:37:11.422Z,101156.56
2018-07-10T05:39:44.264Z,101164.42
2018-07-10T05:42:14.557Z,101170.11
2018-07-10T05:44:45.773Z,101164.84
2018-07-10T05:47:15.344Z,101172.48
2018-07-10T05:49:44.198Z,101175.43
2018-07-10T05:52:14.115Z,101178.30
2018-07-10T05:54:44.922Z,101185.09
2018-07-10T05:57:14.251Z,101169.92
2018-07-10T05:59:43.067Z,101176.71
2018-07-10T06:02:12.373Z,101168.52
2018-07-10T06:04:41.310Z,101178.89
2018-07-10T06:07:12.985Z,101182.96
2018-07-10T06:09:41.876Z,101186.48
2018-07-10T06:12:11.074Z,101179.92
2018-07-10T06:14:40.301Z,101182.14
2018-07-10T06:17:10.907Z,101183.31
2018-07-10T06:19:40.598Z,101181.64
2018-07-10T06:22:09.716Z,101186.16
2018-07-10T06:24:39.596Z,101180.92
2018-07-10T06:27:09.530Z,101192.08
2018-07-10T06:29:50.489Z,101193.59
2018-07-10T06:32:21.089Z,101181.56
2018-07-10T06:34:51.971Z,101202.24
2018-07-10T06:37:30.251Z,101198.77
2018-07-10T06:39:59.854Z,101194.97
2018-07-10T06:42:34.904Z,101200.95
2018-07-10T06:45:04.802Z,101201.98
2018-07-10T06:47:42.038Z,101202.31
2018-07-10T06:50:10.967Z,101195.07
2018-07-10T06:52:43.345Z,101199.09
2018-07-10T06:55:15.586Z,101195.13
2018-07-10T06:57:50.005Z,101194.94
2018-07-10T07:00:18.781Z,101196.36
2018-07-10T07:02:47.750Z,101198.66
2018-07-10T07:05:16.604Z,101189.16
2018-07-10T07:07:45.976Z,101190.65
2018-07-10T07:10:15.646Z,101190.27
2018-07-10T07:12:45.290Z,101199.02
2018-07-10T07:15:21.309Z,101204.23
2018-07-10T07:17:51.946Z,101201.53
2018-07-10T07:20:22.362Z,101209.22
2018-07-10T07:22:51.529Z,101211.41
2018-07-10T07:25:20.343Z,101209.05
2018-07-10T07:27:50.388Z,101206.96
2018-07-10T07:30:19.298Z,101210.04
2018-07-10T07:32:48.895Z,101208.70
2018-07-10T07:35:17.769Z,101219.20
2018-07-10T07:37:46.654Z,101213.41
2018-07-10T07:40:15.682Z,101211.22
2018-07-10T07:42:45.103Z,101217.27
2018-07-10T07:45:13.825Z,101213.69
2018-07-10T07:47:44.019Z,101217.77
2018-07-10T07:50:12.943Z,101213.41
2018-07-10T07:52:43.136Z,101214.95
2018-07-10T07:55:13.054Z,101207.91
2018-07-10T07:57:42.568Z,101217.84
2018-07-10T08:00:11.323Z,101211.66
2018-07-10T08:02:40.461Z,101212.23
2018-07-10T08:05:09.507Z,101220.94
2018-07-10T08:07:39.281Z,101217.88
2018-07-10T08:10:08.295Z,101219.54
2018-07-10T08:12:37.223Z,101212.70
2018-07-10T08:15:06.115Z,101215.74
2018-07-10T08:17:37.810Z,101213.14
2018-07-10T08:20:08.070Z,101211.80
2018-07-10T08:22:36.994Z,101218.41
2018-07-10T08:25:06.466Z,101219.80
2018-07-10T08:27:37.744Z,101215.40
2018-07-10T08:30:07.116Z,101218.13
2018-07-10T08:32:37.777Z,101210.17
2018-07-10T08:35:06.823Z,101215.11
2018-07-10T08:37:35.810Z,101226.59
2018-07-10T08:40:04.672Z,101223.59
2018-07-10T08:42:34.590Z,101219.25
2018-07-10T08:45:04.194Z,101209.43
2018-07-10T08:47:35.030Z,101217.41
2018-07-10T08:50:03.871Z,101219.86
2018-07-10T08:52:33.588Z,101218.47
2018-07-10T08:55:02.439Z,101230.81
2018-07-10T08:57:31.951Z,101221.76
2018-07-10T09:00:00.868Z,101218.20
2018-07-10T09:02:29.750Z,101219.04
2018-07-10T09:04:58.635Z,101215.69
2018-07-10T09:07:28.777Z,101219.24
2018-07-10T09:09:57.566Z,101216.23
2018-07-10T09:12:26.431Z,101226.92
2018-07-10T09:14:55.369Z,101211.62
2018-07-10T09:17:25.015Z,101216.57
2018-07-10T09:19:54.504Z,101220.94
2018-07-10T09:22:23.396Z,101217.67
2018-07-10T09:24:54.845Z,101220.92
2018-07-10T09:27:24.902Z,101223.70
2018-07-10T09:29:53.805Z,101219.86
2018-07-10T09:32:28.078Z,101222.05
2018-07-10T09:34:58.964Z,101224.48
2018-07-10T09:37:35.513Z,101216.83
2018-07-10T09:40:10.035Z,101231.34
2018-07-10T09:42:44.678Z,101223.66
2018-07-10T09:45:13.667Z,101221.44
2018-07-10T09:47:43.283Z,101226.12
2018-07-10T09:50:12.328Z,101234.33
2018-07-10T09:52:42.487Z,101219.81
2018-07-10T09:55:11.774Z,101229.13
2018-07-10T09:57:43.652Z,101232.11
2018-07-10T10:00:12.511Z,101222.84
2018-07-10T10:02:42.098Z,101226.33
2018-07-10T10:05:11.393Z,101226.27
2018-07-10T10:07:41.370Z,101219.35
2018-07-10T10:10:10.500Z,101216.80
2018-07-10T10:12:39.773Z,101211.22
2018-07-10T10:15:08.678Z,101207.03
2018-07-10T10:17:38.392Z,101205.12
2018-07-10T10:20:08.235Z,101204.56
2018-07-10T10:22:37.835Z,101203.71
2018-07-10T10:25:06.715Z,101199.16
2018-07-10T10:27:36.286Z,101202.55
2018-07-10T10:30:05.158Z,101206.20
2018-07-10T10:32:34.049Z,101207.58
2018-07-10T10:35:03.019Z,101206.22
2018-07-10T10:37:31.919Z,101214.42
2018-07-10T10:40:01.534Z,101207.09
2018-07-10T10:42:31.368Z,101214.77
2018-07-10T10:45:01.512Z,101201.11
2018-07-10T10:47:32.270Z,101197.77
2018-07-10T10:50:01.956Z,101199.14
2018-07-10T10:52:31.409Z,101198.60
2018-07-10T10:55:00.433Z,101202.97
2018-07-10T10:57:33.697Z,101195.59
2018-07-10T11:00:03.039Z,101199.79
2018-07-10T11:02:31.914Z,101197.09
2018-07-10T11:05:01.110Z,101197.91
2018-07-10T11:07:31.642Z,101200.95
2018-07-10T11:10:00.530Z,101200.67
2018-07-10T11:12:31.198Z,101195.48
2018-07-10T11:15:00.787Z,101202.30
2018-07-10T11:17:35.114Z,101200.10
2018-07-10T11:20:11.602Z,101198.46
2018-07-10T11:22:46.166Z,101198.19
2018-07-10T11:25:15.288Z,101196.18
2018-07-10T11:28:03.369Z,101193.61
2018-07-10T11:30:33.013Z,101197.10
2018-07-10T11:33:03.148Z,101191.73
2018-07-10T11:35:32.902Z,101187.64
2018-07-10T11:38:03.986Z,101187.38
2018-07-10T11:40:34.442Z,101190.83
2018-07-10T11:43:05.778Z,101185.61
2018-07-10T11:45:35.350Z,101179.25
2018-07-10T11:48:05.160Z,101187.06
2018-07-10T11:50:34.159Z,101181.64
2018-07-10T11:53:03.847Z,101188.83
2018-07-10T11:55:33.436Z,101185.41
2018-07-10T11:58:02.474Z,101179.43
2018-07-10T12:00:31.337Z,101176.59
2018-07-10T12:03:00.234Z,101178.14
2018-07-10T12:05:34.792Z,101181.28
2018-07-10T12:08:04.351Z,101186.81
2018-07-10T12:10:34.527Z,101180.53
2018-07-10T12:13:03.441Z,101179.41
2018-07-10T12:15:32.572Z,101181.91
2018-07-10T12:18:02.693Z,101178.56
2018-07-10T12:20:36.245Z,101179.34
2018-07-10T12:23:06.743Z,101186.98
2018-07-10T12:25:38.557Z,101181.02
2018-07-10T12:28:10.764Z,101187.84
2018-07-10T12:30:40.092Z,101180.53
2018-07-10T12:33:09.594Z,101195.34
2018-07-10T12:35:38.902Z,101199.34
2018-07-10T12:38:07.833Z,101205.72
2018-07-10T12:40:37.357Z,101204.53
2018-07-10T12:43:06.264Z,101201.14
2018-07-10T12:45:35.126Z,101198.34
2018-07-10T12:48:04.486Z,101194.09
2018-07-10T12:50:33.550Z,101193.91
2018-07-10T12:53:03.578Z,101196.45
2018-07-10T12:55:35.295Z,101195.38
2018-07-10T12:58:04.159Z,101195.11
2018-07-10T13:00:33.639Z,101197.30
2018-07-10T13:03:02.543Z,101197.02
2018-07-10T13:05:41.075Z,101205.88
2018-07-10T13:08:11.044Z,101201.25
2018-07-10T13:10:40.096Z,101197.98
2018-07-10T13:13:08.988Z,101205.07
2018-07-10T13:15:37.917Z,101203.58
2018-07-10T13:18:07.864Z,101204.31
2018-07-10T13:20:36.726Z,101200.46
2018-07-10T13:23:05.575Z,101208.78
2018-07-10T13:25:34.582Z,101208.02
2018-07-10T13:28:04.746Z,101207.34
2018-07-10T13:30:33.647Z,101200.27
2018-07-10T13:33:02.710Z,101204.13
2018-07-10T13:35:32.038Z,101205.38
2018-07-10T13:38:02.953Z,101201.97
2018-07-10T13:40:32.199Z,101203.07
2018-07-10T13:43:01.637Z,101195.86
2018-07-10T13:45:31.486Z,101207.77
2018-07-10T13:48:01.054Z,101197.62
2018-07-10T13:50:31.530Z,101192.44
2018-07-10T13:53:01.985Z,101192.79
2018-07-10T13:55:31.859Z,101194.69
2018-07-10T13:58:33.528Z,101183.66
2018-07-10T14:01:06.444Z,101179.27
2018-07-10T14:03:35.819Z,101177.62
2018-07-10T14:06:05.527Z,101178.06
2018-07-10T14:08:35.965Z,101174.27
2018-07-10T14:11:04.842Z,101170.32
2018-07-10T14:13:33.736Z,101168.89
2018-07-10T14:16:03.858Z,101169.41
2018-07-10T14:18:33.381Z,101173.36
2018-07-10T14:21:06.906Z,101171.09
2018-07-10T14:23:37.502Z,101169.37
2018-07-10T14:26:08.100Z,101172.74
2018-07-10T14:28:37.165Z,101165.92
2018-07-10T14:31:05.996Z,101163.34
2018-07-10T14:33:34.979Z,101158.56
2018-07-10T14:36:03.870Z,101169.11
2018-07-10T14:38:34.023Z,101166.95
2018-07-10T14:41:07.267Z,101159.41
2018-07-10T14:43:41.191Z,101160.36
2018-07-10T14:46:18.340Z,101162.52
2018-07-10T14:48:52.078Z,101167.47
2018-07-10T14:51:29.042Z,101158.23
2018-07-10T14:53:57.890Z,101170.16
2018-07-10T14:56:27.936Z,101167.37
2018-07-10T14:58:56.859Z,101171.30
2018-07-10T15:01:25.676Z,101167.22
2018-07-10T15:03:54.532Z,101170.70
2018-07-10T15:06:23.410Z,101168.67
2018-07-10T15:08:52.955Z,101172.05
2018-07-10T15:11:21.744Z,101172.58
2018-07-10T15:14:00.900Z,101170.34
2018-07-10T15:16:36.100Z,101169.95
2018-07-10T15:19:06.037Z,101166.58
2018-07-10T15:21:35.108Z,101173.23
2018-07-10T15:24:05.226Z,101169.72
2018-07-10T15:26:35.181Z,101168.69
2018-07-10T15:29:04.134Z,101170.47
2018-07-10T15:31:32.999Z,101177.88
2018-07-10T15:34:02.849Z,101169.04
2018-07-10T15:36:31.682Z,101169.63
2018-07-10T15:39:00.617Z,101165.13
2018-07-10T15:41:31.700Z,101169.43
2018-07-10T15:44:00.452Z,101173.34
2018-07-10T15:46:29.243Z,101185.89
2018-07-10T15:48:59.144Z,101176.47
2018-07-10T15:51:27.980Z,101198.39
2018-07-10T15:53:56.780Z,101199.75
2018-07-10T15:56:26.215Z,101204.13
2018-07-10T15:58:55.029Z,101191.59
2018-07-10T16:01:23.955Z,101205.56
2018-07-10T16:03:53.059Z,101192.83
2018-07-10T16:06:21.961Z,101195.64
2018-07-10T16:08:51.770Z,101193.80
2018-07-10T16:11:20.671Z,101202.02
2018-07-10T16:13:49.570Z,101201.77
2018-07-10T16:16:20.858Z,101203.16
2018-07-10T16:18:58.137Z,101209.16
2018-07-10T16:21:36.290Z,101203.98
2018-07-10T16:24:05.324Z,101195.22
2018-07-10T16:26:34.908Z,101194.95
2018-07-10T16:29:08.282Z,101195.23
2018-07-10T16:31:40.456Z,101200.16
2018-07-10T16:34:11.018Z,101200.42
2018-07-10T16:36:40.236Z,101201.77
2018-07-10T16:39:09.447Z,101198.73
2018-07-10T16:41:44.854Z,101202.02
2018-07-10T16:44:13.787Z,101203.36
2018-07-10T16:46:49.204Z,101197.00
2018-07-10T16:49:29.102Z,101199.34
2018-07-10T16:53:07.114Z,101199.78
2018-07-10T16:55:36.926Z,101199.54
2018-07-10T16:58:06.183Z,101194.38
2018-07-10T17:00:35.082Z,101201.46
2018-07-10T17:03:04.023Z,101198.69
2018-07-10T17:05:32.919Z,101193.41
2018-07-10T17:08:02.549Z,101192.13
2018-07-10T17:10:31.396Z,101199.06
2018-07-10T17:13:00.348Z,101194.84
2018-07-10T17:15:29.279Z,101196.48
2018-07-10T17:17:58.783Z,101195.63
2018-07-10T17:20:27.648Z,101191.38
2018-07-10T17:22:56.500Z,101198.48
2018-07-10T17:25:25.392Z,101197.50
2018-07-10T17:27:55.219Z,101201.62
2018-07-10T17:30:24.138Z,101207.60
2018-07-10T17:32:53.924Z,101202.06
2018-07-10T17:35:23.206Z,101207.81
2018-07-10T17:37:51.962Z,101205.17
2018-07-10T17:40:20.855Z,101197.30
2018-07-10T17:42:50.753Z,101201.56
2018-07-10T17:45:22.042Z,101195.69
2018-07-10T17:47:51.744Z,101198.55
2018-07-10T17:50:21.066Z,101204.83
2018-07-10T17:52:49.955Z,101198.16
2018-07-10T17:55:18.897Z,101197.47
2018-07-10T17:57:48.877Z,101191.16
2018-07-10T18:00:17.738Z,101195.34
2018-07-10T18:02:46.542Z,101199.45
2018-07-10T18:05:15.394Z,101198.69
2018-07-10T18:07:45.147Z,101199.88
2018-07-10T18:10:14.158Z,101199.70
2018-07-10T18:12:42.990Z,101198.08
2018-07-10T18:15:12.441Z,101200.55
2018-07-10T18:17:42.819Z,101200.94
2018-07-10T18:20:13.043Z,101199.53
2018-07-10T18:22:42.289Z,101205.56
2018-07-10T18:25:11.734Z,101202.67
2018-07-10T18:27:41.655Z,101210.19
2018-07-10T18:30:11.568Z,101203.30
2018-07-10T18:32:40.625Z,101209.16
2018-07-10T18:35:10.641Z,101209.52
2018-07-10T18:37:39.584Z,101204.91
2018-07-10T18:40:08.490Z,101208.52
2018-07-10T18:42:38.038Z,101209.87
2018-07-10T18:45:06.935Z,101214.88
2018-07-10T18:47:37.646Z,101218.64
2018-07-10T18:50:07.009Z,101215.53
2018-07-10T18:52:35.920Z,101218.68
2018-07-10T18:55:04.861Z,101216.77
2018-07-10T18:58:06.863Z,101224.97
2018-07-10T19:01:01.344Z,101216.69
2018-07-10T19:03:31.517Z,101219.87
2018-07-10T19:06:04.416Z,101219.70
2018-07-10T19:08:33.920Z,101219.23
2018-07-10T19:11:03.505Z,101219.28
2018-07-10T19:13:32.352Z,101226.94
2018-07-10T19:16:02.124Z,101229.97
2018-07-10T19:18:32.575Z,101226.42
2018-07-10T19:21:08.587Z,101229.70
2018-07-10T19:23:44.178Z,101230.78
2018-07-10T19:26:14.285Z,101235.66
2018-07-10T19:28:43.598Z,101233.72
2018-07-10T19:31:18.175Z,101234.53
2018-07-10T19:33:50.704Z,101247.06
2018-07-10T19:36:19.529Z,101242.09
2018-07-10T19:38:48.439Z,101240.89
2018-07-10T19:41:19.982Z,101239.16
2018-07-10T19:43:49.078Z,101242.65
2018-07-10T19:46:18.004Z,101239.84
2018-07-10T19:48:50.229Z,101238.95
2018-07-10T19:51:21.895Z,101244.06
2018-07-10T19:53:59.250Z,101241.75
2018-07-10T19:56:29.099Z,101241.94
2018-07-10T19:58:58.852Z,101245.38
2018-07-10T20:01:39.621Z,101244.98
2018-07-10T20:04:14.749Z,101247.59
2018-07-10T20:06:50.726Z,101246.10
2018-07-10T20:09:20.462Z,101244.29
2018-07-10T20:12:03.367Z,101244.19
2018-07-10T20:14:35.944Z,101246.51
2018-07-10T20:17:10.281Z,101250.73
2018-07-10T20:19:46.684Z,101252.23
2018-07-10T20:23:23.219Z,101251.56
2018-07-10T20:26:17.655Z,101249.79
2018-07-10T20:28:59.366Z,101252.88
2018-07-10T20:32:00.175Z,101257.09
2018-07-10T20:34:40.355Z,101256.41
2018-07-10T20:37:18.150Z,101256.02
2018-07-10T20:39:47.154Z,101251.51
2018-07-10T20:42:17.086Z,101254.37
2018-07-10T20:44:52.364Z,101256.40
2018-07-10T20:47:22.086Z,101257.84
2018-07-10T20:50:00.451Z,101259.27
2018-07-10T20:52:46.174Z,101262.29
2018-07-10T20:55:15.397Z,101266.19
2018-07-10T20:58:06.731Z,101271.20
2018-07-10T21:00:39.958Z,101270.45
2018-07-10T21:03:21.110Z,101268.61
2018-07-10T21:05:51.273Z,101267.06
2018-07-10T21:08:34.480Z,101268.30
2018-07-10T21:11:14.100Z,101270.64
2018-07-10T21:13:53.018Z,101273.48
2018-07-10T21:17:04.984Z,101271.14
2018-07-10T21:20:46.956Z,101276.69
2018-07-10T21:23:26.563Z,101274.79
2018-07-10T21:26:05.547Z,101273.52
2018-07-10T21:28:42.360Z,101271.17
2018-07-10T21:31:23.024Z,101272.27
2018-07-10T21:33:59.964Z,101272.94
2018-07-10T21:37:43.647Z,101273.56
2018-07-10T21:40:32.378Z,101275.45
2018-07-10T21:43:15.714Z,101272.03
2018-07-10T21:46:56.483Z,101272.42
2018-07-10T21:49:35.818Z,101269.21
2018-07-10T21:52:04.751Z,101276.14
2018-07-10T21:54:33.643Z,101277.69
2018-07-10T21:57:03.387Z,101278.91
2018-07-10T21:59:33.507Z,101274.70
2018-07-10T22:02:09.753Z,101282.27
2018-07-10T22:04:39.903Z,101278.05
2018-07-10T22:07:13.514Z,101280.09
2018-07-10T22:09:43.726Z,101276.73
2018-07-10T22:12:15.437Z,101282.31
2018-07-10T22:14:45.126Z,101280.28
2018-07-10T22:17:15.824Z,101287.23
2018-07-10T22:19:46.339Z,101289.87
2018-07-10T22:22:20.102Z,101285.13
2018-07-10T22:24:50.936Z,101292.53
2018-07-10T22:27:21.109Z,101291.55
2018-07-10T22:29:55.031Z,101289.73
2018-07-10T22:32:31.330Z,101289.53
2018-07-10T22:35:00.889Z,101286.40
2018-07-10T22:37:29.742Z,101285.48
2018-07-10T22:39:58.621Z,101291.05
2018-07-10T22:42:28.145Z,101296.57
2018-07-10T22:44:58.372Z,101289.67
2018-07-10T22:47:30.951Z,101285.01
2018-07-10T22:50:02.891Z,101291.39
2018-07-10T22:52:31.828Z,101285.02
2018-07-10T22:55:00.727Z,101282.53
2018-07-10T22:57:30.454Z,101283.50
2018-07-10T22:59:59.426Z,101281.77
2018-07-10T23:02:28.158Z,101284.64
2018-07-10T23:04:57.094Z,101277.79
2018-07-10T23:07:26.696Z,101278.53
2018-07-10T23:09:55.564Z,101276.05
2018-07-10T23:12:24.463Z,101272.73
2018-07-10T23:14:53.414Z,101277.23
2018-07-10T23:17:22.953Z,101273.95
2018-07-10T23:19:52.371Z,101270.86
2018-07-10T23:22:21.343Z,101271.00
2018-07-10T23:24:50.235Z,101270.91
2018-07-10T23:27:19.694Z,101269.20
2018-07-10T23:29:48.596Z,101273.17
2018-07-10T23:32:17.484Z,101265.72
2018-07-10T23:34:46.916Z,101263.09
2018-07-10T23:37:17.153Z,101266.23
2018-07-10T23:39:48.131Z,101266.27
2018-07-10T23:42:33.411Z,101261.25
2018-07-10T23:45:33.882Z,101258.89
2018-07-10T23:48:05.235Z,101254.91
2018-07-10T23:50:36.017Z,101255.75
2018-07-10T23:54:13.491Z,101254.52
2018-07-10T23:56:43.740Z,101247.52
2018-07-10T23:59:13.899Z,101248.70
